createdAt,value
2023-03-26T00:28:08.768Z,99785.00
2023-03-26T00:33:11.214Z,99783.00
2023-03-26T00:38:14.404Z,99773.00
2023-03-26T00:43:19.181Z,99769.00
2023-03-26T00:48:34.316Z,99755.00
2023-03-26T00:53:47.190Z,99765.00
2023-03-26T00:58:51.893Z,99760.00
2023-03-26T01:04:06.857Z,99765.00
2023-03-26T01:09:16.975Z,99749.00
2023-03-26T01:14:24.925Z,99751.00
2023-03-26T01:19:33.590Z,99740.00
2023-03-26T01:24:37.880Z,99743.00
2023-03-26T01:29:48.282Z,99739.00
2023-03-26T01:35:18.478Z,99736.00
2023-03-26T01:40:30.005Z,99736.00
2023-03-26T01:45:38.221Z,99722.00
2023-03-26T01:50:41.257Z,99729.00
2023-03-26T01:55:59.425Z,99724.00
2023-03-26T02:01:19.128Z,99715.00
2023-03-26T02:06:31.011Z,99722.00
2023-03-26T02:11:37.336Z,99715.00
2023-03-26T02:16:39.957Z,99706.00
2023-03-26T02:21:43.047Z,99707.00
2023-03-26T02:26:47.498Z,99702.00
2023-03-26T02:31:50.332Z,99704.00
2023-03-26T02:36:53.006Z,99700.00
2023-03-26T02:42:00.341Z,99703.00
2023-03-26T02:47:04.658Z,99696.00
2023-03-26T02:52:25.925Z,99693.00
2023-03-26T02:57:32.857Z,99685.00
2023-03-26T03:02:58.458Z,99686.00
2023-03-26T03:08:07.134Z,99681.00
2023-03-26T03:13:13.344Z,99687.00
2023-03-26T03:18:18.856Z,99683.00
2023-03-26T03:23:21.574Z,99674.00
2023-03-26T03:28:30.915Z,99681.00
2023-03-26T03:33:33.999Z,99689.00
2023-03-26T03:38:36.675Z,99687.00
2023-03-26T03:43:40.999Z,99680.00
2023-03-26T03:48:51.068Z,99668.00
2023-03-26T03:54:00.088Z,99682.00
2023-03-26T03:59:30.008Z,99665.00
2023-03-26T04:04:33.151Z,99665.00
2023-03-26T04:09:40.600Z,99663.00
2023-03-26T04:14:51.609Z,99663.00
2023-03-26T04:19:56.032Z,99662.00
2023-03-26T04:25:03.846Z,99659.00
2023-03-26T04:30:30.816Z,99659.00
2023-03-26T04:35:40.472Z,99655.00
2023-03-26T04:40:44.604Z,99661.00
2023-03-26T04:46:05.838Z,99652.00
2023-03-26T04:51:15.799Z,99654.00
2023-03-26T04:56:34.714Z,99644.00
2023-03-26T05:01:53.246Z,99641.00
2023-03-26T05:06:59.284Z,99637.00
2023-03-26T05:12:10.244Z,99637.00
2023-03-26T05:17:28.050Z,99633.00
2023-03-26T05:22:30.951Z,99635.00
2023-03-26T05:27:59.310Z,99628.00
2023-03-26T05:33:09.526Z,99629.00
2023-03-26T05:38:20.689Z,99630.00
2023-03-26T05:43:23.575Z,99619.00
2023-03-26T05:48:39.538Z,99626.00
2023-03-26T05:53:43.657Z,99628.00
2023-03-26T05:59:21.315Z,99630.00
2023-03-26T06:04:46.005Z,99635.00
2023-03-26T06:10:18.426Z,99642.00
2023-03-26T06:15:22.082Z,99628.00
2023-03-26T06:20:37.552Z,99637.00
2023-03-26T06:25:51.597Z,99637.00
2023-03-26T06:31:01.322Z,99643.00
2023-03-26T06:36:12.917Z,99646.00
2023-03-26T06:41:16.013Z,99644.00
2023-03-26T06:46:33.918Z,99647.00
2023-03-26T06:51:56.583Z,99646.00
2023-03-26T06:57:38.399Z,99646.00
2023-03-26T07:02:59.810Z,99650.00
2023-03-26T07:08:42.653Z,99644.00
2023-03-26T07:14:03.664Z,99644.00
2023-03-26T07:19:24.671Z,99644.00
2023-03-26T07:24:30.800Z,99646.00
2023-03-26T07:30:09.101Z,99647.00
2023-03-26T07:35:56.875Z,99654.00
2023-03-26T07:41:33.539Z,99656.00
2023-03-26T07:46:42.715Z,99668.00
2023-03-26T07:51:59.491Z,99661.00
2023-03-26T07:57:37.291Z,99668.00
2023-03-26T08:03:46.714Z,99671.00
2023-03-26T08:09:19.520Z,99674.00
2023-03-26T08:14:54.887Z,99664.00
2023-03-26T08:20:12.140Z,99676.00
2023-03-26T08:25:27.148Z,99666.00
2023-03-26T08:30:31.583Z,99663.00
2023-03-26T08:35:34.093Z,99673.00
2023-03-26T08:41:32.683Z,99684.00
2023-03-26T08:47:09.967Z,99680.00
2023-03-26T08:52:55.130Z,99673.00
2023-03-26T08:58:55.599Z,99675.00
2023-03-26T09:04:37.696Z,99688.00
2023-03-26T09:10:11.933Z,99686.00
2023-03-26T09:16:23.798Z,99685.00
2023-03-26T09:22:13.869Z,99680.00
2023-03-26T09:27:37.978Z,99688.00
2023-03-26T09:33:32.765Z,99685.00
2023-03-26T09:38:58.969Z,99708.00
2023-03-26T09:44:55.454Z,99702.00
2023-03-26T09:50:24.366Z,99704.00
2023-03-26T09:55:49.169Z,99718.00
2023-03-26T10:01:00.425Z,99722.00
2023-03-26T10:06:36.583Z,99713.00
2023-03-26T10:12:01.983Z,99711.00
2023-03-26T10:17:31.357Z,99705.00
2023-03-26T10:22:52.530Z,99717.00
2023-03-26T10:28:14.594Z,99723.00
2023-03-26T10:33:35.019Z,99732.00
2023-03-26T10:39:00.922Z,99723.00
2023-03-26T10:44:48.551Z,99727.00
2023-03-26T10:50:23.998Z,99716.00
2023-03-26T10:55:35.150Z,99719.00
2023-03-26T11:00:49.840Z,99720.00
2023-03-26T11:06:03.956Z,99727.00
2023-03-26T11:11:20.386Z,99724.00
2023-03-26T11:16:35.756Z,99725.00
2023-03-26T11:21:51.896Z,99721.00
2023-03-26T11:27:14.902Z,99721.00
2023-03-26T11:32:26.919Z,99720.00
2023-03-26T11:37:34.506Z,99717.00
2023-03-26T11:42:37.822Z,99723.00
2023-03-26T11:47:52.851Z,99727.00
2023-03-26T11:53:02.651Z,99723.00
2023-03-26T11:58:14.721Z,99720.00
2023-03-26T12:03:18.724Z,99735.00
2023-03-26T12:08:30.414Z,99721.00
2023-03-26T12:13:52.033Z,99719.00
2023-03-26T12:19:06.530Z,99727.00
2023-03-26T12:24:28.492Z,99718.00
2023-03-26T12:29:31.556Z,99719.00
2023-03-26T12:34:38.015Z,99710.00
2023-03-26T12:40:09.731Z,99703.00
2023-03-26T12:45:12.417Z,99713.00
2023-03-26T12:50:17.293Z,99719.00
2023-03-26T12:55:45.041Z,99719.00
2023-03-26T13:01:01.080Z,99720.00
2023-03-26T13:06:27.071Z,99719.00
2023-03-26T13:11:45.634Z,99724.00
2023-03-26T13:16:57.920Z,99716.00
2023-03-26T13:22:20.950Z,99699.00
2023-03-26T13:27:40.895Z,99717.00
2023-03-26T13:33:06.320Z,99713.00
2023-03-26T13:38:20.849Z,99708.00
2023-03-26T13:43:36.441Z,99726.00
2023-03-26T13:48:48.985Z,99715.00
2023-03-26T13:53:59.650Z,99713.00
2023-03-26T13:59:10.914Z,99697.00
2023-03-26T14:04:22.418Z,99711.00
2023-03-26T14:09:34.456Z,99708.00
2023-03-26T14:14:47.285Z,99709.00
2023-03-26T14:20:51.853Z,99715.00
2023-03-26T14:26:10.469Z,99721.00
2023-03-26T14:31:25.179Z,99722.00
2023-03-26T14:37:27.885Z,99735.00
2023-03-26T14:42:42.363Z,99727.00
2023-03-26T14:48:01.567Z,99729.00
2023-03-26T14:53:17.713Z,99742.00
2023-03-26T14:59:03.559Z,99730.00
2023-03-26T15:04:56.670Z,99739.00
2023-03-26T15:10:38.849Z,99733.00
2023-03-26T15:16:31.494Z,99748.00
2023-03-26T15:22:32.421Z,99749.00
2023-03-26T15:28:08.702Z,99765.00
2023-03-26T15:34:18.141Z,99759.00
2023-03-26T15:39:59.246Z,99778.00
2023-03-26T15:45:33.650Z,99763.00
2023-03-26T15:50:51.841Z,99755.00
2023-03-26T15:56:11.285Z,99763.00
2023-03-26T16:01:30.896Z,99768.00
2023-03-26T16:06:49.165Z,99766.00
2023-03-26T16:11:56.876Z,99765.00
2023-03-26T16:17:01.310Z,99774.00
2023-03-26T16:22:11.796Z,99768.00
2023-03-26T16:27:31.213Z,99774.00
2023-03-26T16:32:36.396Z,99775.00
2023-03-26T16:37:43.465Z,99779.00
2023-03-26T16:42:53.824Z,99783.00
2023-03-26T16:48:08.990Z,99784.00
2023-03-26T16:53:38.607Z,99784.00
2023-03-26T16:58:54.512Z,99793.00
2023-03-26T17:04:02.978Z,99799.00
2023-03-26T17:09:30.375Z,99792.00
2023-03-26T17:14:51.307Z,99802.00
2023-03-26T17:20:03.349Z,99802.00
2023-03-26T17:25:23.108Z,99818.00
2023-03-26T17:30:53.632Z,99819.00
2023-03-26T17:36:31.747Z,99828.00
2023-03-26T17:42:10.999Z,99827.00
2023-03-26T17:47:29.673Z,99836.00
2023-03-26T17:52:45.859Z,99842.00
2023-03-26T17:57:54.349Z,99852.00
2023-03-26T18:03:00.626Z,99853.00
2023-03-26T18:08:43.713Z,99847.00
2023-03-26T18:14:42.937Z,99850.00
2023-03-26T18:19:52.158Z,99856.00
2023-03-26T18:24:59.911Z,99873.00
2023-03-26T18:30:16.426Z,99871.00
2023-03-26T18:35:21.797Z,99879.00
2023-03-26T18:40:32.821Z,99870.00
2023-03-26T18:45:39.937Z,99871.00
2023-03-26T18:50:42.839Z,99889.00
2023-03-26T18:55:51.138Z,99886.00
2023-03-26T19:00:59.286Z,99874.00
2023-03-26T19:06:03.750Z,99869.00
2023-03-26T19:11:11.235Z,99873.00
2023-03-26T19:16:23.690Z,99872.00
2023-03-26T19:21:26.636Z,99866.00
2023-03-26T19:26:29.817Z,99877.00
2023-03-26T19:31:37.451Z,99874.00
2023-03-26T19:36:53.717Z,99874.00
2023-03-26T19:41:56.314Z,99877.00
2023-03-26T19:47:08.011Z,99862.00
2023-03-26T19:52:15.390Z,99869.00
2023-03-26T19:57:18.282Z,99871.00
2023-03-26T20:02:22.791Z,99872.00
2023-03-26T20:07:35.336Z,99873.00
2023-03-26T20:12:38.805Z,99871.00
2023-03-26T20:17:42.968Z,99874.00
2023-03-26T20:22:45.622Z,99878.00
2023-03-26T20:27:51.125Z,99876.00
2023-03-26T20:33:12.832Z,99870.00
2023-03-26T20:38:16.085Z,99877.00
2023-03-26T20:43:19.812Z,99871.00
2023-03-26T20:48:25.287Z,99869.00
2023-03-26T20:53:27.976Z,99874.00
2023-03-26T20:58:33.087Z,99865.00
2023-03-26T21:03:41.905Z,99862.00
2023-03-26T21:08:45.636Z,99868.00
2023-03-26T21:14:00.607Z,99878.00
2023-03-26T21:19:05.731Z,99868.00
2023-03-26T21:24:19.445Z,99867.00
2023-03-26T21:29:22.653Z,99874.00
2023-03-26T21:34:30.593Z,99881.00
2023-03-26T21:39:34.309Z,99886.00
2023-03-26T21:44:38.333Z,99874.00
2023-03-26T21:49:45.712Z,99884.00
2023-03-26T21:54:49.003Z,99882.00
2023-03-26T22:00:05.579Z,99883.00
2023-03-26T22:05:19.421Z,99884.00
2023-03-26T22:10:22.285Z,99887.00
2023-03-26T22:15:24.925Z,99885.00
2023-03-26T22:20:29.050Z,99880.00
2023-03-26T22:25:31.689Z,99886.00
2023-03-26T22:30:34.442Z,99885.00
2023-03-26T22:35:41.040Z,99894.00
2023-03-26T22:40:43.681Z,99904.00
2023-03-26T22:45:49.945Z,99891.00
2023-03-26T22:51:02.672Z,99892.00
2023-03-26T22:56:06.202Z,99905.00
2023-03-26T23:01:13.041Z,99898.00
2023-03-26T23:06:17.179Z,99895.00
2023-03-26T23:11:21.380Z,99894.00
2023-03-26T23:16:23.825Z,99890.00
2023-03-26T23:21:27.630Z,99883.00
2023-03-26T23:26:34.941Z,99878.00
2023-03-26T23:31:40.350Z,99873.00
2023-03-26T23:36:44.358Z,99869.00
2023-03-26T23:41:46.860Z,99877.00
2023-03-26T23:46:49.421Z,99881.00
2023-03-26T23:51:53.363Z,99863.00
2023-03-26T23:56:56.051Z,99864.00
